Time;durP1;ratioP1;P1;durP2;ratioP2;P2;SDS_P1;SDS_P2;PMS_P1;PMS_P2;Temp;Humidity;BMP_temperature;BMP_pressure;BME280_temperature;BME280_humidity;BME280_pressure;Samples;Min_cycle;Max_cycle;Signal;HPM_P1;HPM_P2
2021/09/04 00:00:18;;;;;;;0.00;0.00;;;14.70;68.70;;;;;;5035019;28;20024;-74
2021/09/04 00:02:44;;;;;;;0.00;0.00;;;14.70;68.80;;;;;;5035230;28;20029;-74
2021/09/04 00:05:10;;;;;;;0.00;0.00;;;14.60;68.90;;;;;;5034635;28;20432;-73
2021/09/04 00:07:36;;;;;;;0.00;0.00;;;14.60;69.10;;;;;;5034385;28;20420;-74
2021/09/04 00:10:02;;;;;;;0.00;0.00;;;14.50;69.20;;;;;;5034278;28;20032;-73
2021/09/04 00:12:28;;;;;;;0.00;0.00;;;14.50;69.30;;;;;;5034256;28;20029;-73
2021/09/04 00:14:55;;;;;;;0.00;0.00;;;14.50;69.50;;;;;;5033608;28;20030;-74
2021/09/04 00:17:21;;;;;;;0.00;0.00;;;14.40;69.50;;;;;;5033203;28;20026;-74
2021/09/04 00:19:47;;;;;;;0.00;0.00;;;14.40;69.70;;;;;;5034714;28;20053;-74
2021/09/04 00:22:13;;;;;;;0.00;0.00;;;14.30;69.90;;;;;;5034057;28;20025;-74
2021/09/04 00:24:39;;;;;;;0.00;0.00;;;14.30;70.00;;;;;;5034050;28;20037;-74
2021/09/04 00:27:08;;;;;;;0.00;0.00;;;14.20;70.10;;;;;;5034011;28;20047;-74
2021/09/04 00:29:34;;;;;;;0.00;0.00;;;14.20;70.30;;;;;;5034220;28;20033;-74
2021/09/04 00:32:00;;;;;;;0.00;0.00;;;14.20;70.40;;;;;;5034125;28;20151;-75
2021/09/04 00:34:26;;;;;;;0.00;0.00;;;14.20;70.40;;;;;;5034082;28;20037;-74
2021/09/04 00:36:52;;;;;;;0.00;0.00;;;14.20;70.50;;;;;;5032832;28;20033;-73
2021/09/04 00:39:18;;;;;;;0.00;0.00;;;14.20;70.60;;;;;;5034053;28;20148;-74
2021/09/04 00:41:44;;;;;;;0.00;0.00;;;14.20;70.60;;;;;;5033731;28;20033;-73
2021/09/04 00:44:19;;;;;;;0.00;0.00;;;14.20;70.60;;;;;;5032686;28;20030;-73
2021/09/04 00:46:45;;;;;;;0.00;0.00;;;14.30;70.60;;;;;;5034554;28;20028;-73
2021/09/04 00:49:11;;;;;;;0.00;0.00;;;14.30;70.40;;;;;;5033825;28;20489;-73
2021/09/04 00:51:37;;;;;;;0.00;0.00;;;14.40;70.50;;;;;;5033804;28;20022;-74
2021/09/04 00:54:05;;;;;;;0.00;0.00;;;14.40;70.40;;;;;;5033512;28;20030;-74
2021/09/04 00:56:31;;;;;;;0.00;0.00;;;14.50;70.30;;;;;;5033798;28;20037;-74
2021/09/04 00:59:04;;;;;;;0.00;0.00;;;14.50;70.10;;;;;;5034117;28;20105;-74
2021/09/04 01:01:29;;;;;;;0.00;0.00;;;14.50;70.10;;;;;;5033741;28;20033;-76
2021/09/04 01:03:55;;;;;;;0.00;0.00;;;14.50;70.00;;;;;;5033573;28;20037;-73
2021/09/04 01:06:21;;;;;;;0.00;0.00;;;14.50;70.10;;;;;;5033724;28;20071;-73
2021/09/04 01:08:46;;;;;;;0.00;0.00;;;14.60;70.10;;;;;;5034230;28;20489;-74
2021/09/04 01:11:14;;;;;;;0.00;0.00;;;14.60;70.00;;;;;;5049119;28;20417;-73
2021/09/04 01:13:40;;;;;;;0.00;0.00;;;14.60;70.00;;;;;;5033547;28;20029;-73
2021/09/04 01:16:05;;;;;;;0.00;0.00;;;14.60;70.10;;;;;;5033398;28;20111;-74
2021/09/04 01:18:31;;;;;;;0.00;0.00;;;14.50;70.10;;;;;;5033298;28;20135;-73
2021/09/04 01:21:03;;;;;;;0.00;0.00;;;14.50;70.10;;;;;;5033848;28;20029;-73
2021/09/04 01:23:29;;;;;;;0.00;0.00;;;14.50;70.20;;;;;;5032291;28;20036;-74
2021/09/04 01:25:56;;;;;;;0.00;0.00;;;14.50;70.20;;;;;;5035111;28;20030;-73
2021/09/04 01:28:22;;;;;;;0.00;0.00;;;14.50;70.20;;;;;;5037326;28;20393;-73
2021/09/04 01:30:48;;;;;;;0.00;0.00;;;14.50;70.30;;;;;;5037437;28;20033;-74
2021/09/04 01:33:15;;;;;;;0.00;0.00;;;14.60;70.30;;;;;;5038004;28;20487;-74
2021/09/04 01:35:41;;;;;;;0.00;0.00;;;14.60;70.30;;;;;;5036691;28;20029;-74
2021/09/04 01:38:06;;;;;;;0.00;0.00;;;14.60;70.20;;;;;;5037139;28;20377;-75
2021/09/04 01:40:32;;;;;;;0.00;0.00;;;14.60;70.20;;;;;;5037054;28;20025;-74
2021/09/04 01:42:58;;;;;;;0.00;0.00;;;14.60;70.20;;;;;;5037340;28;20056;-73
2021/09/04 01:45:23;;;;;;;0.00;0.00;;;14.60;70.20;;;;;;5037044;28;20350;-73
2021/09/04 01:47:49;;;;;;;0.00;0.00;;;14.60;70.20;;;;;;5037188;28;20028;-74
2021/09/04 01:50:16;;;;;;;0.00;0.00;;;14.60;70.20;;;;;;5037193;28;20052;-74
2021/09/04 01:52:43;;;;;;;0.00;0.00;;;14.60;70.20;;;;;;5035805;28;20076;-74
2021/09/04 01:55:12;;;;;;;0.00;0.00;;;14.60;70.20;;;;;;5036778;28;20441;-75
2021/09/04 01:57:38;;;;;;;0.00;0.00;;;14.70;70.30;;;;;;5036778;28;20147;-75
2021/09/04 02:00:09;;;;;;;0.00;0.00;;;14.70;70.30;;;;;;5037041;28;20049;-74
2021/09/04 02:02:34;;;;;;;0.00;0.00;;;14.60;70.20;;;;;;5036936;28;20032;-75
2021/09/04 02:05:00;;;;;;;0.00;0.00;;;14.60;70.20;;;;;;5037419;28;20025;-74
2021/09/04 02:07:26;;;;;;;0.00;0.00;;;14.70;70.30;;;;;;5037156;28;20112;-73
2021/09/04 02:09:51;;;;;;;0.00;0.00;;;14.70;70.30;;;;;;5036531;28;20079;-75
2021/09/04 02:12:17;;;;;;;0.00;0.00;;;14.70;70.30;;;;;;5036729;28;20385;-73
2021/09/04 02:14:43;;;;;;;0.00;0.00;;;14.70;70.20;;;;;;5035378;28;20033;-74
2021/09/04 02:17:09;;;;;;;0.00;0.00;;;14.70;70.20;;;;;;5036420;28;20075;-74
2021/09/04 02:19:34;;;;;;;0.00;0.00;;;14.70;70.10;;;;;;5036362;28;20461;-74
2021/09/04 02:22:00;;;;;;;0.00;0.00;;;14.80;70.20;;;;;;5036587;28;20036;-74
2021/09/04 02:24:26;;;;;;;0.00;0.00;;;14.80;70.20;;;;;;5036829;28;20025;-73
2021/09/04 02:26:51;;;;;;;0.00;0.00;;;14.80;70.20;;;;;;5036517;28;20032;-74
2021/09/04 02:29:17;;;;;;;0.00;0.00;;;14.80;70.20;;;;;;5036750;28;20045;-74
2021/09/04 02:31:43;;;;;;;0.00;0.00;;;14.80;70.20;;;;;;5036710;28;20032;-73
2021/09/04 02:34:09;;;;;;;0.00;0.00;;;14.80;70.20;;;;;;5036472;28;20037;-75
2021/09/04 02:36:35;;;;;;;0.00;0.00;;;14.80;70.30;;;;;;5035079;28;20136;-74
2021/09/04 02:39:01;;;;;;;0.00;0.00;;;14.80;70.30;;;;;;5035506;28;20034;-74
2021/09/04 02:41:27;;;;;;;0.00;0.00;;;14.80;70.40;;;;;;5036236;28;20087;-75
2021/09/04 02:43:53;;;;;;;0.00;0.00;;;14.80;70.50;;;;;;5036448;28;20453;-75
2021/09/04 02:46:18;;;;;;;0.00;0.00;;;14.70;70.50;;;;;;5036410;28;20040;-75
2021/09/04 02:48:44;;;;;;;0.00;0.00;;;14.70;70.60;;;;;;5035816;28;20057;-74
2021/09/04 02:51:10;;;;;;;0.00;0.00;;;14.70;70.60;;;;;;5036044;28;20041;-75
2021/09/04 02:53:36;;;;;;;0.00;0.00;;;14.70;70.70;;;;;;5036324;28;20041;-74
2021/09/04 02:56:01;;;;;;;0.00;0.00;;;14.70;70.70;;;;;;5036009;28;20030;-74
2021/09/04 02:58:27;;;;;;;0.00;0.00;;;14.70;70.70;;;;;;5035774;28;20462;-74
2021/09/04 03:00:53;;;;;;;0.00;0.00;;;14.70;70.80;;;;;;5036435;28;20032;-74
2021/09/04 03:03:18;;;;;;;0.00;0.00;;;14.80;70.80;;;;;;5036172;28;20113;-74
2021/09/04 03:05:45;;;;;;;0.00;0.00;;;14.80;70.80;;;;;;5035825;28;20370;-74
2021/09/04 03:08:11;;;;;;;0.00;0.00;;;14.70;70.80;;;;;;5035741;28;20080;-74
2021/09/04 03:10:37;;;;;;;0.00;0.00;;;14.70;70.80;;;;;;5035692;28;20029;-74
2021/09/04 03:13:02;;;;;;;0.00;0.00;;;14.80;70.90;;;;;;5036118;28;20022;-75
2021/09/04 03:15:28;;;;;;;0.00;0.00;;;14.80;70.90;;;;;;5035613;28;20503;-73
2021/09/04 03:17:57;;;;;;;0.00;0.00;;;14.80;70.90;;;;;;5035602;28;20021;-74
2021/09/04 03:20:22;;;;;;;0.00;0.00;;;14.80;70.90;;;;;;5034286;28;20433;-75
2021/09/04 03:22:48;;;;;;;0.00;0.00;;;14.80;70.90;;;;;;5050583;28;20052;-75
2021/09/04 03:25:14;;;;;;;0.00;0.00;;;14.90;71.00;;;;;;5035934;28;20025;-74
2021/09/04 03:27:40;;;;;;;0.00;0.00;;;14.90;70.90;;;;;;5035649;28;20420;-74
2021/09/04 03:30:08;;;;;;;0.00;0.00;;;14.90;71.00;;;;;;5035394;28;20028;-73
2021/09/04 03:32:34;;;;;;;0.00;0.00;;;14.90;71.00;;;;;;5035218;28;20454;-74
2021/09/04 03:34:59;;;;;;;0.00;0.00;;;14.90;71.00;;;;;;5035314;28;20078;-74
2021/09/04 03:37:25;;;;;;;0.00;0.00;;;14.90;71.10;;;;;;5035088;28;20032;-74
2021/09/04 03:39:51;;;;;;;0.00;0.00;;;14.90;71.10;;;;;;5034385;28;20056;-74
2021/09/04 03:42:17;;;;;;;0.00;0.00;;;14.90;71.20;;;;;;5034790;28;20036;-76
2021/09/04 03:44:42;;;;;;;0.00;0.00;;;14.90;71.20;;;;;;5035047;28;20029;-75
2021/09/04 03:47:08;;;;;;;0.00;0.00;;;14.90;71.20;;;;;;5034654;28;20052;-74
2021/09/04 03:49:34;;;;;;;0.00;0.00;;;14.90;71.80;;;;;;5035041;28;20029;-74
2021/09/04 03:52:00;;;;;;;0.00;0.00;;;14.90;71.30;;;;;;5034722;28;20048;-73
2021/09/04 03:54:25;;;;;;;0.00;0.00;;;14.90;71.30;;;;;;5033360;28;20042;-73
2021/09/04 03:56:53;;;;;;;0.00;0.00;;;14.90;71.40;;;;;;5034762;28;20024;-75
2021/09/04 03:59:20;;;;;;;0.00;0.00;;;14.90;71.40;;;;;;5033412;28;20075;-74
2021/09/04 04:01:45;;;;;;;0.00;0.00;;;14.90;71.50;;;;;;5034361;28;20022;-74
2021/09/04 04:04:11;;;;;;;0.00;0.00;;;14.90;71.60;;;;;;5034725;28;20030;-75
2021/09/04 04:06:37;;;;;;;0.00;0.00;;;14.90;71.60;;;;;;5033147;28;20029;-74
2021/09/04 04:09:03;;;;;;;0.00;0.00;;;14.90;71.50;;;;;;5034325;28;20025;-74
2021/09/04 04:11:28;;;;;;;0.00;0.00;;;15.00;71.60;;;;;;5034488;28;20033;-74
2021/09/04 04:13:54;;;;;;;0.00;0.00;;;15.00;71.60;;;;;;5033142;28;20033;-74
2021/09/04 04:16:20;;;;;;;0.63;0.00;;;15.00;71.60;;;;;;5034691;28;20030;-74
2021/09/04 04:18:45;;;;;;;0.00;0.00;;;15.10;71.50;;;;;;5033020;28;20112;-74
2021/09/04 04:21:11;;;;;;;0.00;0.00;;;15.10;71.40;;;;;;5034712;28;20029;-74
2021/09/04 04:23:37;;;;;;;0.00;0.00;;;15.10;71.40;;;;;;5034823;28;20041;-76
2021/09/04 04:26:03;;;;;;;0.00;0.00;;;15.10;71.40;;;;;;5034899;28;20032;-73
2021/09/04 04:28:28;;;;;;;0.00;0.00;;;15.20;71.40;;;;;;5034373;28;20056;-75
2021/09/04 04:30:54;;;;;;;0.00;0.00;;;15.20;71.40;;;;;;5034217;28;20026;-74
2021/09/04 04:33:20;;;;;;;0.00;0.00;;;15.30;71.30;;;;;;5033789;28;20497;-74
2021/09/04 04:35:46;;;;;;;0.00;0.00;;;15.30;71.30;;;;;;5034174;28;20064;-76
2021/09/04 04:38:12;;;;;;;0.00;0.00;;;15.30;71.20;;;;;;5034116;28;20381;-75
2021/09/04 04:40:38;;;;;;;0.00;0.00;;;15.30;71.30;;;;;;5033918;28;20029;-75
2021/09/04 04:43:03;;;;;;;0.00;0.00;;;15.40;71.30;;;;;;5033675;28;20030;-75
2021/09/04 04:45:29;;;;;;;0.00;0.00;;;15.50;71.10;;;;;;5032587;28;20080;-73
2021/09/04 04:47:55;;;;;;;0.00;0.00;;;15.60;70.90;;;;;;5033924;28;20029;-74
2021/09/04 04:50:21;;;;;;;0.00;0.00;;;15.60;70.80;;;;;;5033440;28;20022;-75
2021/09/04 04:52:46;;;;;;;0.00;0.00;;;15.70;70.50;;;;;;5033565;28;20084;-74
2021/09/04 04:55:13;;;;;;;0.00;0.00;;;15.70;70.50;;;;;;5033833;28;20086;-74
2021/09/04 04:57:38;;;;;;;0.00;0.00;;;15.90;70.40;;;;;;5033849;28;20424;-74
2021/09/04 05:00:05;;;;;;;0.00;0.00;;;15.90;70.30;;;;;;5033268;28;20105;-75
2021/09/04 05:02:31;;;;;;;0.00;0.00;;;16.00;70.20;;;;;;5033315;28;20040;-75
2021/09/04 05:04:57;;;;;;;0.00;0.00;;;16.10;70.10;;;;;;5032407;28;20029;-75
2021/09/04 05:07:22;;;;;;;0.00;0.00;;;16.20;69.80;;;;;;5033708;28;20026;-75
2021/09/04 05:09:48;;;;;;;0.00;0.00;;;16.30;69.60;;;;;;5034260;28;20484;-74
2021/09/04 05:12:14;;;;;;;0.00;0.00;;;16.40;69.50;;;;;;5033684;28;20030;-75
2021/09/04 05:14:39;;;;;;;0.00;0.00;;;16.50;69.40;;;;;;5033830;28;20076;-74
2021/09/04 05:17:05;;;;;;;0.00;0.00;;;16.50;69.20;;;;;;5033914;28;20036;-75
2021/09/04 05:19:31;;;;;;;0.00;0.00;;;16.50;69.10;;;;;;5033620;28;20358;-76
2021/09/04 05:21:58;;;;;;;0.00;0.00;;;16.60;69.00;;;;;;5034282;28;20096;-76
2021/09/04 05:24:29;;;;;;;0.00;0.00;;;16.60;69.00;;;;;;5033616;28;20508;-75
2021/09/04 05:26:55;;;;;;;0.00;0.00;;;16.70;68.80;;;;;;5033621;28;20478;-74
2021/09/04 05:29:21;;;;;;;0.00;0.00;;;16.70;68.70;;;;;;5033102;28;20029;-74
2021/09/04 05:31:46;;;;;;;0.00;0.00;;;16.70;68.80;;;;;;5033945;28;20026;-74
2021/09/04 05:34:12;;;;;;;0.00;0.00;;;16.70;68.90;;;;;;5033340;28;20034;-75
2021/09/04 05:36:57;;;;;;;0.00;0.00;;;16.80;68.80;;;;;;5048474;28;20065;-74
2021/09/04 05:39:27;;;;;;;0.00;0.00;;;17.00;68.60;;;;;;5032917;28;20029;-76
2021/09/04 05:41:53;;;;;;;0.00;0.00;;;17.20;68.20;;;;;;5033673;28;20032;-74
2021/09/04 05:44:18;;;;;;;0.00;0.00;;;17.30;68.10;;;;;;5033583;28;20111;-75
2021/09/04 05:46:44;;;;;;;0.00;0.00;;;17.40;67.80;;;;;;5033148;28;20037;-74
2021/09/04 05:49:10;;;;;;;0.00;0.00;;;17.50;67.60;;;;;;5033347;28;20034;-75
2021/09/04 05:51:35;;;;;;;0.00;0.00;;;17.60;67.50;;;;;;5033225;28;20030;-77
2021/09/04 05:54:01;;;;;;;0.00;0.00;;;17.70;67.20;;;;;;5033001;28;20496;-77
2021/09/04 05:56:27;;;;;;;0.00;0.00;;;17.80;67.00;;;;;;5032999;28;20025;-74
2021/09/04 05:58:52;;;;;;;0.00;0.00;;;17.90;67.00;;;;;;5033264;28;20082;-74
2021/09/04 06:01:18;;;;;;;0.00;0.00;;;18.00;66.70;;;;;;5032024;28;20029;-74
2021/09/04 06:03:44;;;;;;;0.00;0.00;;;18.20;66.40;;;;;;5033457;28;20040;-75
2021/09/04 06:06:10;;;;;;;0.00;0.00;;;18.30;66.30;;;;;;5033146;28;20024;-74
2021/09/04 06:08:39;;;;;;;0.00;0.00;;;18.50;65.90;;;;;;5033079;28;20029;-75
2021/09/04 06:11:05;;;;;;;0.00;0.00;;;18.70;65.50;;;;;;5033089;28;20033;-74
2021/09/04 06:13:30;;;;;;;0.00;0.00;;;18.80;65.10;;;;;;5035584;28;20064;-74
2021/09/04 06:15:56;;;;;;;0.00;0.00;;;18.90;64.80;;;;;;5037020;28;20457;-75
2021/09/04 06:18:22;;;;;;;0.00;0.00;;;19.10;64.40;;;;;;5036396;28;20029;-75
2021/09/04 06:20:47;;;;;;;0.00;0.00;;;19.30;64.10;;;;;;5035423;28;20032;-74
2021/09/04 06:23:13;;;;;;;0.00;0.00;;;19.40;63.90;;;;;;5036609;28;20068;-75
2021/09/04 06:25:39;;;;;;;0.00;0.00;;;19.50;63.50;;;;;;5036547;28;20031;-74
2021/09/04 06:28:05;;;;;;;0.00;0.00;;;19.60;63.30;;;;;;5036723;28;20029;-75
2021/09/04 06:30:32;;;;;;;0.00;0.00;;;19.60;63.10;;;;;;5036172;28;20025;-76
2021/09/04 06:32:57;;;;;;;0.00;0.00;;;19.70;63.00;;;;;;5035021;28;20021;-75
2021/09/04 06:35:23;;;;;;;0.00;0.00;;;19.90;62.90;;;;;;5035099;28;20504;-76
2021/09/04 06:37:49;;;;;;;0.00;0.00;;;20.00;62.70;;;;;;5034667;28;20120;-75
2021/09/04 06:40:15;;;;;;;0.00;0.00;;;20.10;62.60;;;;;;5035678;28;20108;-74
2021/09/04 06:42:41;;;;;;;0.00;0.00;;;20.30;62.30;;;;;;5036151;28;20492;-75
2021/09/04 06:45:07;;;;;;;0.00;0.00;;;20.50;62.10;;;;;;5036424;28;20033;-75
2021/09/04 06:47:32;;;;;;;0.00;0.00;;;20.60;61.80;;;;;;5035825;28;20053;-75
2021/09/04 06:49:58;;;;;;;0.00;0.00;;;20.80;61.50;;;;;;5036516;28;20083;-76
2021/09/04 06:52:24;;;;;;;0.00;0.00;;;20.80;61.50;;;;;;5035988;28;20477;-77
2021/09/04 06:54:49;;;;;;;0.03;0.00;;;20.90;61.90;;;;;;5034939;28;20045;-75
2021/09/04 06:57:15;;;;;;;0.00;0.00;;;21.00;61.20;;;;;;5036214;28;20026;-76
2021/09/04 06:59:41;;;;;;;0.00;0.00;;;21.00;60.90;;;;;;5034840;28;20025;-76
2021/09/04 07:02:07;;;;;;;0.00;0.00;;;21.00;61.20;;;;;;5036667;28;20076;-77
2021/09/04 07:04:32;;;;;;;0.00;0.00;;;20.90;60.60;;;;;;5034886;28;20053;-78
2021/09/04 07:07:05;;;;;;;0.00;0.00;;;20.80;60.70;;;;;;5035299;28;20462;-76
2021/09/04 07:09:32;;;;;;;0.00;0.00;;;20.70;60.80;;;;;;5036228;28;20029;-75
2021/09/04 07:11:57;;;;;;;0.00;0.00;;;20.60;61.10;;;;;;5035584;28;20061;-75
2021/09/04 07:14:23;;;;;;;0.00;0.00;;;20.60;61.10;;;;;;5034284;28;20088;-75
2021/09/04 07:16:49;;;;;;;0.00;0.00;;;20.60;61.10;;;;;;5035602;28;20056;-76
2021/09/04 07:19:15;;;;;;;0.00;0.00;;;20.50;61.00;;;;;;5035695;28;20477;-77
2021/09/04 07:21:41;;;;;;;0.00;0.00;;;20.50;61.10;;;;;;5036294;28;20029;-77
2021/09/04 07:24:06;;;;;;;0.00;0.00;;;20.40;61.10;;;;;;5035615;28;20159;-76
2021/09/04 07:26:33;;;;;;;0.00;0.00;;;20.40;61.30;;;;;;5034118;28;20026;-76
2021/09/04 07:29:00;;;;;;;0.00;0.00;;;20.30;61.10;;;;;;5050347;28;20026;-75
2021/09/04 07:31:25;;;;;;;0.00;0.00;;;20.30;61.10;;;;;;5035212;28;20033;-75
2021/09/04 07:33:51;;;;;;;0.00;0.00;;;20.20;61.10;;;;;;5035951;28;20037;-75
2021/09/04 07:36:17;;;;;;;0.00;0.00;;;20.30;61.20;;;;;;5035133;28;20026;-76
2021/09/04 07:38:43;;;;;;;0.00;0.00;;;20.50;61.00;;;;;;5035184;28;20087;-76
2021/09/04 07:41:09;;;;;;;0.00;0.00;;;20.80;60.50;;;;;;5035180;28;20525;-76
2021/09/04 07:43:34;;;;;;;0.00;0.00;;;21.00;60.00;;;;;;5033909;28;20041;-75
2021/09/04 07:46:00;;;;;;;0.00;0.00;;;21.20;59.60;;;;;;5035609;28;20033;-76
2021/09/04 07:48:26;;;;;;;0.00;0.00;;;21.30;59.10;;;;;;5033783;28;20025;-78
2021/09/04 07:50:53;;;;;;;0.00;0.00;;;21.40;58.70;;;;;;5033248;28;20462;-78
2021/09/04 07:53:19;;;;;;;0.00;0.00;;;21.40;58.60;;;;;;5035155;28;20103;-75
2021/09/04 07:55:44;;;;;;;0.00;0.00;;;21.40;58.50;;;;;;5034577;28;20485;-75
2021/09/04 07:58:10;;;;;;;0.00;0.00;;;21.20;58.40;;;;;;5034449;28;20022;-75
2021/09/04 08:00:36;;;;;;;0.00;0.00;;;21.10;58.60;;;;;;5034525;28;20029;-76
2021/09/04 08:03:01;;;;;;;0.00;0.00;;;21.00;58.70;;;;;;5034327;28;20518;-75
2021/09/04 08:05:27;;;;;;;0.00;0.00;;;21.00;58.80;;;;;;5034383;28;20047;-77
2021/09/04 08:07:53;;;;;;;0.00;0.00;;;21.00;59.00;;;;;;5033276;28;20175;-78
2021/09/04 08:10:19;;;;;;;0.00;0.00;;;21.10;58.60;;;;;;5033158;28;20168;-75
2021/09/04 08:12:44;;;;;;;0.00;0.00;;;21.30;57.90;;;;;;5034354;28;20033;-77
2021/09/04 08:15:10;;;;;;;0.00;0.00;;;21.50;57.30;;;;;;5034561;28;20029;-75
2021/09/04 08:17:36;;;;;;;0.00;0.00;;;21.50;56.90;;;;;;5032976;28;20041;-75
2021/09/04 08:20:03;;;;;;;0.00;0.00;;;21.40;56.70;;;;;;5033742;28;20036;-76
2021/09/04 08:22:29;;;;;;;0.00;0.00;;;21.30;56.70;;;;;;5034170;28;20034;-75
2021/09/04 08:24:55;;;;;;;0.00;0.00;;;21.20;56.70;;;;;;5034452;28;20037;-75
2021/09/04 08:27:21;;;;;;;0.00;0.00;;;21.40;56.40;;;;;;5034248;28;20025;-75
2021/09/04 08:29:48;;;;;;;0.00;0.00;;;21.60;56.00;;;;;;5033089;28;20021;-74
2021/09/04 08:32:14;;;;;;;0.00;0.00;;;21.80;55.70;;;;;;5034101;28;20025;-75
2021/09/04 08:34:40;;;;;;;0.00;0.00;;;22.00;55.40;;;;;;5033188;28;20030;-76
2021/09/04 08:37:06;;;;;;;0.00;0.00;;;22.30;54.80;;;;;;5033791;28;20393;-76
2021/09/04 08:39:32;;;;;;;0.00;0.00;;;22.50;54.10;;;;;;5035567;28;20061;-75
2021/09/04 08:41:58;;;;;;;0.00;0.00;;;22.50;53.80;;;;;;5034066;28;20037;-76
2021/09/04 08:44:24;;;;;;;0.00;0.00;;;22.50;53.40;;;;;;5034103;28;20390;-75
2021/09/04 08:46:51;;;;;;;0.00;0.00;;;22.40;52.90;;;;;;5033686;28;20032;-76
2021/09/04 08:49:18;;;;;;;0.00;0.00;;;22.30;52.30;;;;;;5033784;28;20036;-75
2021/09/04 08:51:45;;;;;;;0.00;0.00;;;22.10;52.10;;;;;;5033723;28;20133;-75
2021/09/04 08:54:11;;;;;;;0.00;0.00;;;21.90;51.90;;;;;;5033810;28;20473;-76
2021/09/04 08:56:38;;;;;;;0.00;0.00;;;21.70;52.00;;;;;;5033758;28;20046;-76
2021/09/04 08:59:03;;;;;;;0.00;0.00;;;21.70;52.30;;;;;;5033597;28;20055;-75
2021/09/04 09:01:30;;;;;;;0.00;0.00;;;21.70;52.40;;;;;;5033441;28;20022;-77
2021/09/04 09:04:01;;;;;;;0.00;0.00;;;21.80;52.10;;;;;;5033714;28;20040;-75
2021/09/04 09:06:29;;;;;;;0.00;0.00;;;22.00;51.70;;;;;;5032348;28;20033;-75
2021/09/04 09:08:55;;;;;;;0.00;0.00;;;22.10;51.50;;;;;;5032346;28;20041;-75
2021/09/04 09:11:22;;;;;;;0.00;0.00;;;22.30;51.10;;;;;;5033553;28;20497;-75
2021/09/04 09:13:53;;;;;;;0.00;0.00;;;22.70;50.70;;;;;;5033420;28;20033;-74
2021/09/04 09:16:23;;;;;;;0.00;0.00;;;23.50;49.60;;;;;;5033254;28;20465;-75
2021/09/04 09:18:57;;;;;;;0.00;0.00;;;23.90;48.90;;;;;;5048685;28;20022;-75
2021/09/04 09:21:27;;;;;;;0.00;0.00;;;24.00;48.10;;;;;;5033521;28;20104;-74
2021/09/04 09:24:07;;;;;;;0.00;0.00;;;24.00;47.90;;;;;;5033470;28;20029;-74
2021/09/04 09:26:33;;;;;;;0.00;0.00;;;23.80;47.80;;;;;;5033269;28;20018;-75
2021/09/04 09:29:18;;;;;;;0.00;0.00;;;23.60;48.20;;;;;;5033036;28;20022;-75
2021/09/04 09:31:44;;;;;;;0.00;0.00;;;23.60;47.80;;;;;;5033373;28;20022;-75
2021/09/04 09:34:11;;;;;;;0.00;0.00;;;23.70;48.10;;;;;;5033019;28;20033;-75
2021/09/04 09:36:51;;;;;;;0.00;0.00;;;23.80;48.00;;;;;;5033372;28;20071;-75
2021/09/04 09:39:18;;;;;;;0.00;0.00;;;24.00;47.50;;;;;;5032692;28;20036;-75
2021/09/04 09:41:51;;;;;;;0.00;0.00;;;24.50;47.30;;;;;;5033207;28;20040;-75
2021/09/04 09:44:26;;;;;;;0.00;0.00;;;25.00;46.40;;;;;;5033390;28;20102;-75
2021/09/04 09:46:55;;;;;;;0.00;0.00;;;25.20;45.70;;;;;;5034687;28;20025;-76
2021/09/04 09:49:33;;;;;;;0.00;0.00;;;25.50;45.30;;;;;;5037493;28;20021;-75
2021/09/04 09:52:02;;;;;;;0.00;0.00;;;25.70;44.40;;;;;;5036822;28;20094;-74
2021/09/04 09:54:31;;;;;;;0.00;0.00;;;25.60;44.30;;;;;;5035771;28;20037;-75
2021/09/04 09:56:58;;;;;;;0.00;0.00;;;25.70;44.40;;;;;;5037243;28;20365;-76
2021/09/04 09:59:31;;;;;;;0.00;0.00;;;26.50;43.70;;;;;;5036605;28;20385;-76
2021/09/04 10:02:28;;;;;;;0.00;0.00;;;27.00;43.10;;;;;;5037229;28;20025;-74
2021/09/04 10:04:56;;;;;;;0.00;0.00;;;28.20;43.00;;;;;;5036769;28;20385;-77
2021/09/04 10:07:22;;;;;;;0.00;0.00;;;29.50;41.70;;;;;;5035654;28;20034;-76
2021/09/04 10:09:50;;;;;;;0.00;0.00;;;30.00;40.70;;;;;;5036689;28;20025;-76
2021/09/04 10:12:16;;;;;;;0.00;0.00;;;30.10;40.20;;;;;;5035232;28;20036;-74
2021/09/04 10:14:44;;;;;;;1.35;0.00;;;30.10;39.70;;;;;;5036260;28;20523;-74
2021/09/04 10:17:11;;;;;;;0.00;0.00;;;30.20;39.40;;;;;;5036256;28;20072;-76
2021/09/04 10:19:39;;;;;;;0.00;0.00;;;30.10;39.10;;;;;;5036780;28;20124;-76
2021/09/04 10:22:09;;;;;;;0.00;0.00;;;29.80;38.80;;;;;;5036404;28;20407;-76
2021/09/04 10:24:54;;;;;;;0.00;0.00;;;29.60;38.90;;;;;;5036275;28;20035;-76
2021/09/04 10:27:36;;;;;;;0.00;0.00;;;29.50;39.20;;;;;;5036182;28;20473;-75
2021/09/04 10:30:28;;;;;;;0.00;0.00;;;30.00;38.70;;;;;;5036385;28;20029;-76
2021/09/04 10:32:59;;;;;;;0.00;0.00;;;29.80;38.30;;;;;;5036044;28;20073;-77
2021/09/04 10:35:46;;;;;;;0.00;0.00;;;29.20;38.10;;;;;;5036046;28;20045;-77
2021/09/04 10:38:18;;;;;;;0.00;0.00;;;29.10;38.50;;;;;;5035265;28;20032;-76
2021/09/04 10:40:48;;;;;;;0.00;0.00;;;29.80;38.40;;;;;;5035901;28;20025;-76
2021/09/04 10:43:15;;;;;;;0.10;0.00;;;30.00;37.90;;;;;;5035901;28;20028;-76
2021/09/04 10:45:45;;;;;;;0.00;0.00;;;29.90;37.90;;;;;;5036050;28;20026;-76
2021/09/04 10:48:16;;;;;;;0.00;0.00;;;30.30;37.50;;;;;;5035945;28;20022;-76
2021/09/04 10:50:59;;;;;;;0.00;0.00;;;30.10;37.10;;;;;;5035637;28;20037;-77
2021/09/04 10:53:44;;;;;;;0.00;0.00;;;29.40;37.10;;;;;;5036422;28;20049;-75
2021/09/04 10:56:45;;;;;;;0.00;0.00;;;29.40;38.30;;;;;;5035830;28;20033;-77
2021/09/04 10:59:12;;;;;;;0.00;0.00;;;30.80;37.80;;;;;;5032863;28;20455;-77
2021/09/04 11:01:37;;;;;;;0.00;0.00;;;32.20;37.30;;;;;;5035264;28;20040;-77
2021/09/04 11:04:04;;;;;;;0.00;0.00;;;33.40;36.50;;;;;;5034266;28;20029;-75
2021/09/04 11:06:30;;;;;;;0.00;0.00;;;34.40;35.40;;;;;;5034665;28;20092;-74
2021/09/04 11:08:56;;;;;;;0.00;0.00;;;35.20;34.60;;;;;;5035800;28;20021;-74
2021/09/04 11:11:32;;;;;;;0.00;0.00;;;35.80;33.90;;;;;;5035540;28;20028;-77
2021/09/04 11:14:00;;;;;;;0.00;0.00;;;36.40;33.30;;;;;;5035150;28;20033;-75
2021/09/04 11:16:32;;;;;;;0.00;0.00;;;37.10;33.10;;;;;;5035505;28;20041;-74
2021/09/04 11:19:24;;;;;;;0.00;0.00;;;37.90;32.40;;;;;;5034788;28;20021;-76
2021/09/04 11:21:53;;;;;;;0.00;0.00;;;38.60;31.90;;;;;;5035088;28;20026;-75
2021/09/04 11:25:00;;;;;;;0.00;0.00;;;39.20;31.90;;;;;;5035599;28;20056;-75
2021/09/04 11:27:25;;;;;;;0.00;0.00;;;39.80;30.90;;;;;;5035638;28;20036;-75
2021/09/04 11:29:53;;;;;;;0.00;0.00;;;40.30;30.80;;;;;;5034908;28;20489;-76
2021/09/04 11:32:28;;;;;;;0.00;0.00;;;40.60;30.20;;;;;;5035127;28;20026;-74
2021/09/04 11:34:59;;;;;;;0.00;0.00;;;40.90;29.90;;;;;;5033726;28;20116;-75
2021/09/04 11:37:36;;;;;;;0.00;0.00;;;41.00;29.50;;;;;;5034659;28;20112;-77
2021/09/04 11:40:18;;;;;;;0.00;0.00;;;40.90;29.30;;;;;;5035246;28;20029;-75
2021/09/04 11:42:48;;;;;;;0.00;0.00;;;39.90;29.20;;;;;;5033643;28;20120;-74
2021/09/04 11:45:19;;;;;;;0.00;0.00;;;38.80;29.20;;;;;;5034738;28;20109;-77
2021/09/04 11:47:57;;;;;;;0.00;0.00;;;37.70;29.10;;;;;;5035513;28;20029;-75
2021/09/04 11:50:31;;;;;;;0.00;0.00;;;37.20;29.40;;;;;;5051596;28;20029;-75
2021/09/04 11:53:08;;;;;;;0.00;0.00;;;37.10;29.60;;;;;;5035882;28;20373;-75
2021/09/04 11:55:37;;;;;;;0.00;0.00;;;37.20;29.70;;;;;;5034829;28;20033;-75
2021/09/04 11:58:14;;;;;;;0.00;0.00;;;36.70;29.70;;;;;;5034597;28;20037;-76
2021/09/04 12:00:42;;;;;;;0.00;0.00;;;36.60;29.70;;;;;;5034562;28;20474;-75
2021/09/04 12:03:14;;;;;;;0.00;0.00;;;37.00;29.80;;;;;;5034715;28;20021;-75
2021/09/04 12:05:46;;;;;;;0.00;0.00;;;37.70;29.70;;;;;;5035000;28;20104;-75
2021/09/04 12:08:15;;;;;;;0.00;0.00;;;38.30;29.60;;;;;;5033754;28;20048;-76
2021/09/04 12:10:42;;;;;;;0.00;0.00;;;37.70;29.50;;;;;;5032260;28;20026;-75
2021/09/04 12:13:20;;;;;;;0.00;0.00;;;37.40;29.90;;;;;;5034342;28;20022;-77
2021/09/04 12:15:51;;;;;;;0.00;0.00;;;37.70;29.90;;;;;;5035149;28;20033;-76
2021/09/04 12:18:42;;;;;;;0.00;0.00;;;37.80;29.40;;;;;;5034269;28;20108;-76
2021/09/04 12:21:26;;;;;;;0.00;0.00;;;37.30;29.00;;;;;;5033921;28;20489;-76
2021/09/04 12:23:57;;;;;;;0.00;0.00;;;36.90;28.90;;;;;;5033992;28;20090;-75
2021/09/04 12:26:23;;;;;;;0.00;0.00;;;35.80;29.00;;;;;;5034570;28;20028;-75
2021/09/04 12:28:48;;;;;;;0.00;0.00;;;34.70;29.30;;;;;;5033987;28;20424;-76
2021/09/04 12:31:16;;;;;;;0.00;0.00;;;34.10;29.50;;;;;;5032802;28;20484;-74
2021/09/04 12:33:51;;;;;;;0.00;0.00;;;33.60;29.70;;;;;;5033644;28;20030;-76
2021/09/04 12:36:27;;;;;;;0.00;0.00;;;33.10;30.00;;;;;;5034490;28;20037;-75
2021/09/04 12:38:55;;;;;;;0.00;0.00;;;33.10;30.00;;;;;;5033325;28;20421;-76
2021/09/04 12:41:33;;;;;;;0.00;0.00;;;32.60;30.10;;;;;;5032716;28;20484;-76
2021/09/04 12:44:06;;;;;;;0.00;0.00;;;32.20;30.70;;;;;;5033700;28;20136;-75
2021/09/04 12:46:52;;;;;;;0.00;0.00;;;31.70;30.90;;;;;;5033647;28;20025;-75
2021/09/04 12:49:26;;;;;;;0.00;0.00;;;31.00;31.20;;;;;;5033682;28;20029;-76
2021/09/04 12:52:09;;;;;;;0.00;0.00;;;30.90;31.50;;;;;;5033554;28;20176;-76